sensor_id;sensor_type;location;lat;lon;timestamp;P1;durP1;ratioP1;P2;durP2;ratioP2
61112;SDS011;47184;57.998;56.184;2022-08-01T00:01:08;29.23;;;16.83;;
61112;SDS011;47184;57.998;56.184;2022-08-01T00:03:34;30.05;;;17.00;;
61112;SDS011;47184;57.998;56.184;2022-08-01T00:06:00;29.15;;;15.20;;
61112;SDS011;47184;57.998;56.184;2022-08-01T00:08:26;26.10;;;16.08;;
61112;SDS011;47184;57.998;56.184;2022-08-01T00:10:52;30.17;;;14.45;;
61112;SDS011;47184;57.998;56.184;2022-08-01T00:13:18;27.52;;;15.00;;
61112;SDS011;47184;57.998;56.184;2022-08-01T00:15:44;25.48;;;13.57;;
61112;SDS011;47184;57.998;56.184;2022-08-01T00:18:10;29.33;;;14.73;;
61112;SDS011;47184;57.998;56.184;2022-08-01T00:20:36;22.55;;;13.52;;
61112;SDS011;47184;57.998;56.184;2022-08-01T00:23:02;32.70;;;14.50;;
61112;SDS011;47184;57.998;56.184;2022-08-01T00:25:29;28.33;;;14.20;;
61112;SDS011;47184;57.998;56.184;2022-08-01T00:27:55;30.55;;;14.75;;
61112;SDS011;47184;57.998;56.184;2022-08-01T00:30:21;25.48;;;13.82;;
61112;SDS011;47184;57.998;56.184;2022-08-01T00:32:47;27.60;;;13.45;;
61112;SDS011;47184;57.998;56.184;2022-08-01T00:35:13;31.30;;;13.77;;
61112;SDS011;47184;57.998;56.184;2022-08-01T00:37:39;26.67;;;14.15;;
61112;SDS011;47184;57.998;56.184;2022-08-01T00:40:06;27.60;;;14.25;;
61112;SDS011;47184;57.998;56.184;2022-08-01T00:42:32;23.35;;;14.00;;
61112;SDS011;47184;57.998;56.184;2022-08-01T00:44:58;27.77;;;14.50;;
61112;SDS011;47184;57.998;56.184;2022-08-01T00:47:25;23.65;;;13.80;;
61112;SDS011;47184;57.998;56.184;2022-08-01T00:49:51;22.98;;;13.15;;
61112;SDS011;47184;57.998;56.184;2022-08-01T00:52:17;23.75;;;12.85;;
61112;SDS011;47184;57.998;56.184;2022-08-01T00:54:43;25.95;;;14.40;;
61112;SDS011;47184;57.998;56.184;2022-08-01T00:57:10;22.25;;;13.30;;
61112;SDS011;47184;57.998;56.184;2022-08-01T00:59:37;24.88;;;13.00;;
61112;SDS011;47184;57.998;56.184;2022-08-01T01:02:04;26.73;;;12.00;;
61112;SDS011;47184;57.998;56.184;2022-08-01T01:04:30;19.88;;;11.73;;
61112;SDS011;47184;57.998;56.184;2022-08-01T01:15:34;20.02;;;11.05;;
61112;SDS011;47184;57.998;56.184;2022-08-01T01:18:09;25.70;;;13.73;;
61112;SDS011;47184;57.998;56.184;2022-08-01T01:20:37;26.15;;;13.32;;
61112;SDS011;47184;57.998;56.184;2022-08-01T01:25:46;22.67;;;11.52;;
61112;SDS011;47184;57.998;56.184;2022-08-01T01:28:29;20.20;;;13.00;;
61112;SDS011;47184;57.998;56.184;2022-08-01T01:31:07;38.28;;;13.90;;
61112;SDS011;47184;57.998;56.184;2022-08-01T01:33:36;26.13;;;13.00;;
61112;SDS011;47184;57.998;56.184;2022-08-01T01:36:05;33.78;;;13.65;;
61112;SDS011;47184;57.998;56.184;2022-08-01T01:38:36;21.85;;;13.63;;
61112;SDS011;47184;57.998;56.184;2022-08-01T01:41:12;25.92;;;14.23;;
61112;SDS011;47184;57.998;56.184;2022-08-01T01:43:42;28.35;;;13.50;;
61112;SDS011;47184;57.998;56.184;2022-08-01T01:46:10;26.83;;;14.00;;
61112;SDS011;47184;57.998;56.184;2022-08-01T01:48:38;23.70;;;13.75;;
61112;SDS011;47184;57.998;56.184;2022-08-01T01:51:05;31.42;;;13.25;;
61112;SDS011;47184;57.998;56.184;2022-08-01T01:53:33;25.25;;;14.18;;
61112;SDS011;47184;57.998;56.184;2022-08-01T01:56:02;27.40;;;15.20;;
61112;SDS011;47184;57.998;56.184;2022-08-01T01:58:29;29.85;;;14.90;;
61112;SDS011;47184;57.998;56.184;2022-08-01T02:00:58;24.55;;;13.55;;
61112;SDS011;47184;57.998;56.184;2022-08-01T02:03:25;28.23;;;14.52;;
61112;SDS011;47184;57.998;56.184;2022-08-01T02:05:53;37.80;;;15.40;;
61112;SDS011;47184;57.998;56.184;2022-08-01T02:08:21;27.15;;;14.73;;
61112;SDS011;47184;57.998;56.184;2022-08-01T02:10:49;35.65;;;15.43;;
61112;SDS011;47184;57.998;56.184;2022-08-01T02:13:36;33.63;;;15.30;;
61112;SDS011;47184;57.998;56.184;2022-08-01T02:16:04;21.20;;;12.20;;
61112;SDS011;47184;57.998;56.184;2022-08-01T02:18:32;39.88;;;15.65;;
61112;SDS011;47184;57.998;56.184;2022-08-01T02:20:58;35.15;;;16.02;;
61112;SDS011;47184;57.998;56.184;2022-08-01T02:23:31;27.08;;;14.82;;
61112;SDS011;47184;57.998;56.184;2022-08-01T02:26:00;26.77;;;14.60;;
61112;SDS011;47184;57.998;56.184;2022-08-01T02:28:32;32.13;;;15.55;;
61112;SDS011;47184;57.998;56.184;2022-08-01T02:31:04;30.15;;;14.80;;
61112;SDS011;47184;57.998;56.184;2022-08-01T02:33:37;32.10;;;14.00;;
61112;SDS011;47184;57.998;56.184;2022-08-01T02:36:05;32.13;;;14.93;;
61112;SDS011;47184;57.998;56.184;2022-08-01T02:38:35;32.15;;;16.33;;
61112;SDS011;47184;57.998;56.184;2022-08-01T02:41:06;41.83;;;15.40;;
61112;SDS011;47184;57.998;56.184;2022-08-01T02:43:40;32.78;;;15.15;;
61112;SDS011;47184;57.998;56.184;2022-08-01T02:46:12;30.20;;;12.98;;
61112;SDS011;47184;57.998;56.184;2022-08-01T02:48:45;28.90;;;14.93;;
61112;SDS011;47184;57.998;56.184;2022-08-01T02:51:15;33.33;;;14.80;;
61112;SDS011;47184;57.998;56.184;2022-08-01T02:53:42;33.00;;;16.48;;
61112;SDS011;47184;57.998;56.184;2022-08-01T02:56:11;32.22;;;13.80;;
61112;SDS011;47184;57.998;56.184;2022-08-01T02:58:38;35.30;;;14.77;;
61112;SDS011;47184;57.998;56.184;2022-08-01T03:01:06;36.05;;;14.50;;
61112;SDS011;47184;57.998;56.184;2022-08-01T03:03:34;34.10;;;14.10;;
61112;SDS011;47184;57.998;56.184;2022-08-01T03:06:02;29.63;;;12.23;;
61112;SDS011;47184;57.998;56.184;2022-08-01T03:08:30;24.95;;;12.65;;
61112;SDS011;47184;57.998;56.184;2022-08-01T03:10:57;25.58;;;13.18;;
61112;SDS011;47184;57.998;56.184;2022-08-01T03:13:27;37.88;;;13.32;;
61112;SDS011;47184;57.998;56.184;2022-08-01T03:15:55;25.83;;;13.48;;
61112;SDS011;47184;57.998;56.184;2022-08-01T03:18:23;35.20;;;12.90;;
61112;SDS011;47184;57.998;56.184;2022-08-01T03:20:52;46.40;;;25.30;;
61112;SDS011;47184;57.998;56.184;2022-08-01T03:23:20;24.48;;;13.30;;
61112;SDS011;47184;57.998;56.184;2022-08-01T03:25:48;25.77;;;12.43;;
61112;SDS011;47184;57.998;56.184;2022-08-01T03:28:16;29.52;;;13.82;;
61112;SDS011;47184;57.998;56.184;2022-08-01T03:30:44;24.48;;;14.45;;
61112;SDS011;47184;57.998;56.184;2022-08-01T03:33:11;25.55;;;12.35;;
61112;SDS011;47184;57.998;56.184;2022-08-01T03:35:38;30.58;;;14.68;;
61112;SDS011;47184;57.998;56.184;2022-08-01T03:38:08;27.23;;;13.35;;
61112;SDS011;47184;57.998;56.184;2022-08-01T03:41:02;36.78;;;13.55;;
61112;SDS011;47184;57.998;56.184;2022-08-01T03:46:04;21.10;;;11.90;;
61112;SDS011;47184;57.998;56.184;2022-08-01T03:48:39;35.67;;;12.57;;
61112;SDS011;47184;57.998;56.184;2022-08-01T03:51:10;26.48;;;13.63;;
61112;SDS011;47184;57.998;56.184;2022-08-01T03:53:38;23.38;;;12.43;;
61112;SDS011;47184;57.998;56.184;2022-08-01T03:56:06;25.77;;;12.45;;
61112;SDS011;47184;57.998;56.184;2022-08-01T03:58:35;29.10;;;13.73;;
61112;SDS011;47184;57.998;56.184;2022-08-01T04:01:05;29.77;;;14.70;;
61112;SDS011;47184;57.998;56.184;2022-08-01T04:03:32;32.22;;;13.77;;
61112;SDS011;47184;57.998;56.184;2022-08-01T04:05:59;23.17;;;13.30;;
61112;SDS011;47184;57.998;56.184;2022-08-01T04:08:33;26.80;;;12.98;;
61112;SDS011;47184;57.998;56.184;2022-08-01T04:11:03;25.05;;;13.02;;
61112;SDS011;47184;57.998;56.184;2022-08-01T04:13:30;25.92;;;12.85;;
61112;SDS011;47184;57.998;56.184;2022-08-01T04:15:57;29.98;;;12.27;;
61112;SDS011;47184;57.998;56.184;2022-08-01T04:18:23;24.20;;;11.50;;
61112;SDS011;47184;57.998;56.184;2022-08-01T04:20:49;20.92;;;11.63;;
61112;SDS011;47184;57.998;56.184;2022-08-01T04:23:16;19.05;;;7.53;;
61112;SDS011;47184;57.998;56.184;2022-08-01T04:25:46;27.90;;;12.00;;
61112;SDS011;47184;57.998;56.184;2022-08-01T04:28:14;30.92;;;12.07;;
61112;SDS011;47184;57.998;56.184;2022-08-01T04:30:42;32.63;;;11.20;;
61112;SDS011;47184;57.998;56.184;2022-08-01T04:33:13;23.67;;;11.68;;
61112;SDS011;47184;57.998;56.184;2022-08-01T04:35:43;26.45;;;12.90;;
61112;SDS011;47184;57.998;56.184;2022-08-01T04:38:11;24.13;;;12.27;;
61112;SDS011;47184;57.998;56.184;2022-08-01T04:40:42;22.50;;;10.85;;
61112;SDS011;47184;57.998;56.184;2022-08-01T04:43:11;25.25;;;11.60;;
61112;SDS011;47184;57.998;56.184;2022-08-01T04:45:37;57.28;;;14.48;;
61112;SDS011;47184;57.998;56.184;2022-08-01T04:48:05;41.28;;;12.38;;
61112;SDS011;47184;57.998;56.184;2022-08-01T04:50:32;44.97;;;12.38;;
61112;SDS011;47184;57.998;56.184;2022-08-01T04:53:00;17.60;;;8.95;;
61112;SDS011;47184;57.998;56.184;2022-08-01T04:55:28;28.90;;;12.35;;
61112;SDS011;47184;57.998;56.184;2022-08-01T04:57:56;41.38;;;11.57;;
61112;SDS011;47184;57.998;56.184;2022-08-01T05:00:22;61.95;;;13.57;;
61112;SDS011;47184;57.998;56.184;2022-08-01T05:02:49;56.58;;;14.20;;
61112;SDS011;47184;57.998;56.184;2022-08-01T05:05:15;67.97;;;13.65;;
61112;SDS011;47184;57.998;56.184;2022-08-01T05:07:41;48.83;;;15.10;;
61112;SDS011;47184;57.998;56.184;2022-08-01T05:10:07;54.55;;;16.23;;
61112;SDS011;47184;57.998;56.184;2022-08-01T05:12:33;44.83;;;15.65;;
61112;SDS011;47184;57.998;56.184;2022-08-01T05:14:59;38.03;;;15.70;;
61112;SDS011;47184;57.998;56.184;2022-08-01T05:17:25;63.35;;;16.50;;
61112;SDS011;47184;57.998;56.184;2022-08-01T05:19:52;45.22;;;14.85;;
61112;SDS011;47184;57.998;56.184;2022-08-01T05:22:18;49.15;;;15.60;;
61112;SDS011;47184;57.998;56.184;2022-08-01T05:24:44;34.65;;;13.15;;
61112;SDS011;47184;57.998;56.184;2022-08-01T05:27:11;35.97;;;13.77;;
61112;SDS011;47184;57.998;56.184;2022-08-01T05:29:39;48.50;;;13.90;;
61112;SDS011;47184;57.998;56.184;2022-08-01T05:32:05;35.03;;;12.93;;
61112;SDS011;47184;57.998;56.184;2022-08-01T05:34:31;50.60;;;12.65;;
61112;SDS011;47184;57.998;56.184;2022-08-01T05:36:57;59.72;;;14.35;;
61112;SDS011;47184;57.998;56.184;2022-08-01T05:39:24;29.65;;;14.02;;
61112;SDS011;47184;57.998;56.184;2022-08-01T05:41:50;36.85;;;13.35;;
61112;SDS011;47184;57.998;56.184;2022-08-01T05:44:16;32.35;;;12.48;;
61112;SDS011;47184;57.998;56.184;2022-08-01T05:46:42;53.65;;;13.80;;
61112;SDS011;47184;57.998;56.184;2022-08-01T05:49:08;50.88;;;13.70;;
61112;SDS011;47184;57.998;56.184;2022-08-01T05:51:34;28.35;;;13.23;;
61112;SDS011;47184;57.998;56.184;2022-08-01T05:54:00;34.65;;;12.60;;
61112;SDS011;47184;57.998;56.184;2022-08-01T05:56:28;37.85;;;11.90;;
61112;SDS011;47184;57.998;56.184;2022-08-01T05:58:54;28.38;;;8.50;;
61112;SDS011;47184;57.998;56.184;2022-08-01T06:01:20;53.42;;;14.30;;
61112;SDS011;47184;57.998;56.184;2022-08-01T06:03:46;48.22;;;14.05;;
61112;SDS011;47184;57.998;56.184;2022-08-01T06:06:12;34.22;;;11.68;;
61112;SDS011;47184;57.998;56.184;2022-08-01T06:08:40;37.03;;;12.95;;
61112;SDS011;47184;57.998;56.184;2022-08-01T06:11:06;56.67;;;15.05;;
61112;SDS011;47184;57.998;56.184;2022-08-01T06:13:33;76.75;;;14.48;;
61112;SDS011;47184;57.998;56.184;2022-08-01T06:15:59;48.25;;;14.15;;
61112;SDS011;47184;57.998;56.184;2022-08-01T06:18:25;46.83;;;15.65;;
61112;SDS011;47184;57.998;56.184;2022-08-01T06:20:51;50.00;;;13.52;;
61112;SDS011;47184;57.998;56.184;2022-08-01T06:23:17;19.00;;;9.40;;
61112;SDS011;47184;57.998;56.184;2022-08-01T06:25:45;55.08;;;15.10;;
61112;SDS011;47184;57.998;56.184;2022-08-01T06:28:11;27.58;;;9.68;;
61112;SDS011;47184;57.998;56.184;2022-08-01T06:30:37;28.13;;;11.13;;
61112;SDS011;47184;57.998;56.184;2022-08-01T06:33:03;52.08;;;13.35;;
61112;SDS011;47184;57.998;56.184;2022-08-01T06:35:30;47.08;;;12.57;;
61112;SDS011;47184;57.998;56.184;2022-08-01T06:37:57;39.28;;;10.70;;
61112;SDS011;47184;57.998;56.184;2022-08-01T06:40:23;26.30;;;11.45;;
61112;SDS011;47184;57.998;56.184;2022-08-01T06:42:50;34.30;;;11.45;;
61112;SDS011;47184;57.998;56.184;2022-08-01T06:45:16;53.75;;;12.00;;
61112;SDS011;47184;57.998;56.184;2022-08-01T06:47:43;153.13;;;16.30;;
61112;SDS011;47184;57.998;56.184;2022-08-01T06:50:10;76.15;;;13.35;;
61112;SDS011;47184;57.998;56.184;2022-08-01T06:52:37;57.13;;;11.23;;
61112;SDS011;47184;57.998;56.184;2022-08-01T06:55:03;40.30;;;10.68;;
61112;SDS011;47184;57.998;56.184;2022-08-01T06:57:30;40.88;;;8.88;;
61112;SDS011;47184;57.998;56.184;2022-08-01T06:59:56;25.45;;;9.52;;
61112;SDS011;47184;57.998;56.184;2022-08-01T07:02:22;47.22;;;10.43;;
61112;SDS011;47184;57.998;56.184;2022-08-01T07:04:48;19.38;;;7.10;;
61112;SDS011;47184;57.998;56.184;2022-08-01T07:07:15;42.28;;;9.70;;
61112;SDS011;47184;57.998;56.184;2022-08-01T07:09:41;22.17;;;8.25;;
61112;SDS011;47184;57.998;56.184;2022-08-01T07:12:08;24.38;;;7.40;;
61112;SDS011;47184;57.998;56.184;2022-08-01T07:14:34;22.52;;;9.30;;
61112;SDS011;47184;57.998;56.184;2022-08-01T07:17:00;41.92;;;10.00;;
61112;SDS011;47184;57.998;56.184;2022-08-01T07:19:29;46.55;;;11.88;;
61112;SDS011;47184;57.998;56.184;2022-08-01T07:21:56;37.53;;;11.25;;
61112;SDS011;47184;57.998;56.184;2022-08-01T07:24:21;22.65;;;9.15;;
61112;SDS011;47184;57.998;56.184;2022-08-01T07:26:48;24.42;;;10.07;;
61112;SDS011;47184;57.998;56.184;2022-08-01T07:29:14;30.98;;;10.15;;
61112;SDS011;47184;57.998;56.184;2022-08-01T07:31:40;29.13;;;10.25;;
61112;SDS011;47184;57.998;56.184;2022-08-01T07:34:07;30.55;;;11.07;;
61112;SDS011;47184;57.998;56.184;2022-08-01T07:36:33;15.90;;;7.68;;
61112;SDS011;47184;57.998;56.184;2022-08-01T07:38:59;35.05;;;10.85;;
61112;SDS011;47184;57.998;56.184;2022-08-01T07:41:25;28.17;;;10.57;;
61112;SDS011;47184;57.998;56.184;2022-08-01T07:43:51;18.17;;;7.75;;
61112;SDS011;47184;57.998;56.184;2022-08-01T07:46:21;33.08;;;11.10;;
61112;SDS011;47184;57.998;56.184;2022-08-01T07:48:47;43.85;;;11.25;;
61112;SDS011;47184;57.998;56.184;2022-08-01T07:51:13;37.22;;;12.80;;
61112;SDS011;47184;57.998;56.184;2022-08-01T07:53:39;34.80;;;10.50;;
61112;SDS011;47184;57.998;56.184;2022-08-01T07:56:05;44.85;;;11.85;;
61112;SDS011;47184;57.998;56.184;2022-08-01T07:58:32;25.80;;;9.95;;
61112;SDS011;47184;57.998;56.184;2022-08-01T08:00:59;26.88;;;9.55;;
61112;SDS011;47184;57.998;56.184;2022-08-01T08:03:25;19.90;;;9.68;;
61112;SDS011;47184;57.998;56.184;2022-08-01T08:05:52;27.45;;;7.70;;
61112;SDS011;47184;57.998;56.184;2022-08-01T08:08:18;67.95;;;11.57;;
61112;SDS011;47184;57.998;56.184;2022-08-01T08:10:44;12.35;;;6.90;;
61112;SDS011;47184;57.998;56.184;2022-08-01T08:13:10;29.00;;;9.00;;
61112;SDS011;47184;57.998;56.184;2022-08-01T08:15:37;44.15;;;10.65;;
61112;SDS011;47184;57.998;56.184;2022-08-01T08:18:03;40.60;;;9.88;;
61112;SDS011;47184;57.998;56.184;2022-08-01T08:20:30;17.20;;;9.02;;
61112;SDS011;47184;57.998;56.184;2022-08-01T08:22:56;29.00;;;9.35;;
61112;SDS011;47184;57.998;56.184;2022-08-01T08:25:24;38.88;;;10.77;;
61112;SDS011;47184;57.998;56.184;2022-08-01T08:27:51;32.80;;;11.18;;
61112;SDS011;47184;57.998;56.184;2022-08-01T08:30:18;49.75;;;13.50;;
61112;SDS011;47184;57.998;56.184;2022-08-01T08:32:44;65.90;;;14.98;;
61112;SDS011;47184;57.998;56.184;2022-08-01T08:35:10;35.47;;;11.38;;
61112;SDS011;47184;57.998;56.184;2022-08-01T08:37:37;32.92;;;12.40;;
61112;SDS011;47184;57.998;56.184;2022-08-01T08:40:04;8.30;;;4.57;;
61112;SDS011;47184;57.998;56.184;2022-08-01T08:42:31;54.05;;;14.25;;
61112;SDS011;47184;57.998;56.184;2022-08-01T08:44:57;29.65;;;11.82;;
61112;SDS011;47184;57.998;56.184;2022-08-01T08:47:23;40.72;;;12.88;;
61112;SDS011;47184;57.998;56.184;2022-08-01T08:49:52;24.35;;;12.05;;
61112;SDS011;47184;57.998;56.184;2022-08-01T08:52:20;44.63;;;11.98;;
61112;SDS011;47184;57.998;56.184;2022-08-01T08:54:47;38.55;;;13.00;;
61112;SDS011;47184;57.998;56.184;2022-08-01T08:57:15;43.75;;;11.15;;
61112;SDS011;47184;57.998;56.184;2022-08-01T08:59:44;34.47;;;11.30;;
61112;SDS011;47184;57.998;56.184;2022-08-01T09:02:11;32.83;;;12.32;;
61112;SDS011;47184;57.998;56.184;2022-08-01T09:04:37;29.85;;;10.38;;
61112;SDS011;47184;57.998;56.184;2022-08-01T09:07:05;43.10;;;13.07;;
61112;SDS011;47184;57.998;56.184;2022-08-01T09:09:32;40.75;;;10.25;;
61112;SDS011;47184;57.998;56.184;2022-08-01T09:11:58;44.28;;;10.35;;
61112;SDS011;47184;57.998;56.184;2022-08-01T09:14:25;49.60;;;11.00;;
61112;SDS011;47184;57.998;56.184;2022-08-01T09:16:59;66.15;;;11.23;;
61112;SDS011;47184;57.998;56.184;2022-08-01T09:19:34;19.23;;;8.80;;
61112;SDS011;47184;57.998;56.184;2022-08-01T09:22:03;35.55;;;9.98;;
61112;SDS011;47184;57.998;56.184;2022-08-01T09:24:34;52.13;;;10.50;;
61112;SDS011;47184;57.998;56.184;2022-08-01T09:27:01;37.83;;;9.85;;
61112;SDS011;47184;57.998;56.184;2022-08-01T09:29:41;39.90;;;10.10;;
61112;SDS011;47184;57.998;56.184;2022-08-01T09:32:07;35.22;;;8.90;;
61112;SDS011;47184;57.998;56.184;2022-08-01T09:34:34;42.45;;;9.52;;
61112;SDS011;47184;57.998;56.184;2022-08-01T09:37:01;26.92;;;9.00;;
61112;SDS011;47184;57.998;56.184;2022-08-01T09:39:29;9.68;;;5.30;;
61112;SDS011;47184;57.998;56.184;2022-08-01T09:41:58;12.63;;;6.80;;
61112;SDS011;47184;57.998;56.184;2022-08-01T09:44:41;35.17;;;9.90;;
61112;SDS011;47184;57.998;56.184;2022-08-01T09:47:09;23.90;;;7.73;;
61112;SDS011;47184;57.998;56.184;2022-08-01T09:49:36;30.55;;;7.90;;
61112;SDS011;47184;57.998;56.184;2022-08-01T09:52:37;21.70;;;8.02;;
61112;SDS011;47184;57.998;56.184;2022-08-01T09:55:00;18.73;;;5.60;;
61112;SDS011;47184;57.998;56.184;2022-08-01T09:57:29;14.15;;;6.53;;
61112;SDS011;47184;57.998;56.184;2022-08-01T09:59:56;20.65;;;7.43;;
61112;SDS011;47184;57.998;56.184;2022-08-01T10:04:58;19.60;;;7.38;;
61112;SDS011;47184;57.998;56.184;2022-08-01T10:07:24;22.75;;;8.55;;
61112;SDS011;47184;57.998;56.184;2022-08-01T10:09:51;24.38;;;9.13;;
61112;SDS011;47184;57.998;56.184;2022-08-01T10:12:18;18.92;;;8.55;;
61112;SDS011;47184;57.998;56.184;2022-08-01T10:14:47;46.22;;;11.05;;
61112;SDS011;47184;57.998;56.184;2022-08-01T10:17:21;16.63;;;8.52;;
61112;SDS011;47184;57.998;56.184;2022-08-01T10:19:50;30.50;;;9.18;;
61112;SDS011;47184;57.998;56.184;2022-08-01T10:22:20;26.83;;;9.15;;
61112;SDS011;47184;57.998;56.184;2022-08-01T10:24:50;14.80;;;6.50;;
61112;SDS011;47184;57.998;56.184;2022-08-01T10:27:20;27.00;;;8.27;;
61112;SDS011;47184;57.998;56.184;2022-08-01T10:30:21;19.00;;;6.72;;
61112;SDS011;47184;57.998;56.184;2022-08-01T10:32:41;19.75;;;6.53;;
61112;SDS011;47184;57.998;56.184;2022-08-01T10:35:08;15.43;;;7.00;;
61112;SDS011;47184;57.998;56.184;2022-08-01T10:37:40;8.38;;;3.72;;
61112;SDS011;47184;57.998;56.184;2022-08-01T10:40:06;14.15;;;6.72;;
61112;SDS011;47184;57.998;56.184;2022-08-01T10:42:34;15.27;;;6.65;;
61112;SDS011;47184;57.998;56.184;2022-08-01T10:45:00;16.15;;;6.32;;
61112;SDS011;47184;57.998;56.184;2022-08-01T10:48:12;16.92;;;6.10;;
61112;SDS011;47184;57.998;56.184;2022-08-01T10:55:46;19.92;;;5.47;;
61112;SDS011;47184;57.998;56.184;2022-08-01T10:58:23;16.70;;;4.20;;
61112;SDS011;47184;57.998;56.184;2022-08-01T11:06:40;21.85;;;6.32;;
61112;SDS011;47184;57.998;56.184;2022-08-01T11:09:46;8.10;;;4.30;;
61112;SDS011;47184;57.998;56.184;2022-08-01T11:12:16;8.02;;;4.30;;
61112;SDS011;47184;57.998;56.184;2022-08-01T11:17:32;18.10;;;5.72;;
61112;SDS011;47184;57.998;56.184;2022-08-01T11:20:06;13.52;;;4.90;;
61112;SDS011;47184;57.998;56.184;2022-08-01T11:25:26;16.13;;;4.07;;
61112;SDS011;47184;57.998;56.184;2022-08-01T11:30:44;12.73;;;4.35;;
61112;SDS011;47184;57.998;56.184;2022-08-01T11:33:15;33.83;;;6.22;;
61112;SDS011;47184;57.998;56.184;2022-08-01T11:41:27;13.82;;;4.72;;
61112;SDS011;47184;57.998;56.184;2022-08-01T11:44:11;12.23;;;4.55;;
61112;SDS011;47184;57.998;56.184;2022-08-01T11:54:34;10.07;;;4.28;;
61112;SDS011;47184;57.998;56.184;2022-08-01T11:57:05;12.05;;;4.75;;
61112;SDS011;47184;57.998;56.184;2022-08-01T11:59:44;17.63;;;4.90;;
61112;SDS011;47184;57.998;56.184;2022-08-01T12:02:46;20.83;;;4.70;;
61112;SDS011;47184;57.998;56.184;2022-08-01T12:05:09;14.88;;;4.50;;
61112;SDS011;47184;57.998;56.184;2022-08-01T12:07:37;41.35;;;7.95;;
61112;SDS011;47184;57.998;56.184;2022-08-01T12:10:13;10.55;;;4.55;;
61112;SDS011;47184;57.998;56.184;2022-08-01T12:12:51;6.95;;;4.43;;
61112;SDS011;47184;57.998;56.184;2022-08-01T12:15:19;6.35;;;3.47;;
61112;SDS011;47184;57.998;56.184;2022-08-01T12:17:48;8.57;;;5.05;;
61112;SDS011;47184;57.998;56.184;2022-08-01T12:20:32;8.80;;;5.25;;
61112;SDS011;47184;57.998;56.184;2022-08-01T12:23:05;10.73;;;5.07;;
61112;SDS011;47184;57.998;56.184;2022-08-01T12:25:33;9.00;;;4.40;;
61112;SDS011;47184;57.998;56.184;2022-08-01T12:28:01;9.70;;;4.32;;
61112;SDS011;47184;57.998;56.184;2022-08-01T12:30:31;16.00;;;4.78;;
61112;SDS011;47184;57.998;56.184;2022-08-01T12:33:00;20.13;;;5.72;;
61112;SDS011;47184;57.998;56.184;2022-08-01T12:35:31;13.52;;;4.75;;
61112;SDS011;47184;57.998;56.184;2022-08-01T12:38:13;9.40;;;4.95;;
61112;SDS011;47184;57.998;56.184;2022-08-01T12:40:42;8.73;;;4.07;;
61112;SDS011;47184;57.998;56.184;2022-08-01T12:43:09;9.43;;;4.93;;
61112;SDS011;47184;57.998;56.184;2022-08-01T12:45:41;15.13;;;5.38;;
61112;SDS011;47184;57.998;56.184;2022-08-01T12:48:11;18.88;;;4.45;;
61112;SDS011;47184;57.998;56.184;2022-08-01T12:50:39;13.20;;;4.43;;
61112;SDS011;47184;57.998;56.184;2022-08-01T12:53:08;19.95;;;5.35;;
61112;SDS011;47184;57.998;56.184;2022-08-01T12:55:43;9.30;;;4.55;;
61112;SDS011;47184;57.998;56.184;2022-08-01T12:58:17;15.43;;;4.40;;
61112;SDS011;47184;57.998;56.184;2022-08-01T13:00:45;5.45;;;3.63;;
61112;SDS011;47184;57.998;56.184;2022-08-01T13:03:15;9.65;;;3.97;;
61112;SDS011;47184;57.998;56.184;2022-08-01T13:05:44;11.43;;;3.60;;
61112;SDS011;47184;57.998;56.184;2022-08-01T13:08:23;13.70;;;3.58;;
61112;SDS011;47184;57.998;56.184;2022-08-01T13:13:43;6.18;;;2.75;;
61112;SDS011;47184;57.998;56.184;2022-08-01T13:16:10;8.77;;;3.17;;
61112;SDS011;47184;57.998;56.184;2022-08-01T13:18:36;15.05;;;3.67;;
61112;SDS011;47184;57.998;56.184;2022-08-01T13:21:16;11.38;;;3.45;;
61112;SDS011;47184;57.998;56.184;2022-08-01T13:29:21;11.15;;;3.75;;
61112;SDS011;47184;57.998;56.184;2022-08-01T13:31:54;4.80;;;2.47;;
61112;SDS011;47184;57.998;56.184;2022-08-01T13:34:33;7.05;;;3.22;;
61112;SDS011;47184;57.998;56.184;2022-08-01T13:37:00;16.52;;;3.50;;
61112;SDS011;47184;57.998;56.184;2022-08-01T13:39:30;8.90;;;2.88;;
61112;SDS011;47184;57.998;56.184;2022-08-01T13:42:08;26.73;;;4.97;;
61112;SDS011;47184;57.998;56.184;2022-08-01T13:44:39;17.38;;;4.30;;
61112;SDS011;47184;57.998;56.184;2022-08-01T13:47:06;14.77;;;3.10;;
61112;SDS011;47184;57.998;56.184;2022-08-01T13:49:33;14.07;;;3.40;;
61112;SDS011;47184;57.998;56.184;2022-08-01T13:52:00;13.07;;;3.75;;
61112;SDS011;47184;57.998;56.184;2022-08-01T13:54:27;22.20;;;4.28;;
61112;SDS011;47184;57.998;56.184;2022-08-01T13:56:53;16.85;;;4.03;;
61112;SDS011;47184;57.998;56.184;2022-08-01T13:59:20;12.85;;;3.80;;
61112;SDS011;47184;57.998;56.184;2022-08-01T14:01:46;17.83;;;4.65;;
61112;SDS011;47184;57.998;56.184;2022-08-01T14:04:13;10.60;;;3.92;;
61112;SDS011;47184;57.998;56.184;2022-08-01T14:06:39;14.85;;;4.07;;
61112;SDS011;47184;57.998;56.184;2022-08-01T14:09:05;18.80;;;4.28;;
61112;SDS011;47184;57.998;56.184;2022-08-01T14:11:31;26.63;;;4.30;;
61112;SDS011;47184;57.998;56.184;2022-08-01T14:13:58;22.55;;;4.43;;
61112;SDS011;47184;57.998;56.184;2022-08-01T14:16:24;16.50;;;3.50;;
61112;SDS011;47184;57.998;56.184;2022-08-01T14:18:50;15.35;;;3.25;;
61112;SDS011;47184;57.998;56.184;2022-08-01T14:21:16;29.10;;;4.07;;
61112;SDS011;47184;57.998;56.184;2022-08-01T14:23:42;22.73;;;4.43;;
61112;SDS011;47184;57.998;56.184;2022-08-01T14:26:09;9.90;;;3.50;;
61112;SDS011;47184;57.998;56.184;2022-08-01T14:28:36;12.10;;;3.70;;
61112;SDS011;47184;57.998;56.184;2022-08-01T14:31:02;16.75;;;4.03;;
61112;SDS011;47184;57.998;56.184;2022-08-01T14:33:29;19.13;;;3.97;;
61112;SDS011;47184;57.998;56.184;2022-08-01T14:35:56;16.00;;;4.60;;
61112;SDS011;47184;57.998;56.184;2022-08-01T14:38:22;13.73;;;4.15;;
61112;SDS011;47184;57.998;56.184;2022-08-01T14:40:49;20.85;;;4.05;;
61112;SDS011;47184;57.998;56.184;2022-08-01T14:43:19;10.80;;;3.60;;
61112;SDS011;47184;57.998;56.184;2022-08-01T14:45:45;17.08;;;4.22;;
61112;SDS011;47184;57.998;56.184;2022-08-01T14:48:16;16.48;;;4.90;;
61112;SDS011;47184;57.998;56.184;2022-08-01T14:50:42;29.33;;;3.70;;
61112;SDS011;47184;57.998;56.184;2022-08-01T14:53:09;18.10;;;3.85;;
61112;SDS011;47184;57.998;56.184;2022-08-01T14:55:35;11.45;;;3.65;;
61112;SDS011;47184;57.998;56.184;2022-08-01T14:58:01;12.70;;;3.33;;
61112;SDS011;47184;57.998;56.184;2022-08-01T15:00:27;16.33;;;3.75;;
61112;SDS011;47184;57.998;56.184;2022-08-01T15:02:53;21.85;;;4.50;;
61112;SDS011;47184;57.998;56.184;2022-08-01T15:05:20;7.35;;;3.22;;
61112;SDS011;47184;57.998;56.184;2022-08-01T15:07:46;9.85;;;3.30;;
61112;SDS011;47184;57.998;56.184;2022-08-01T15:10:12;19.77;;;3.92;;
61112;SDS011;47184;57.998;56.184;2022-08-01T15:12:39;13.75;;;3.45;;
61112;SDS011;47184;57.998;56.184;2022-08-01T15:15:05;18.90;;;4.25;;
61112;SDS011;47184;57.998;56.184;2022-08-01T15:17:32;31.10;;;4.82;;
61112;SDS011;47184;57.998;56.184;2022-08-01T15:19:59;11.18;;;3.50;;
61112;SDS011;47184;57.998;56.184;2022-08-01T15:22:30;31.98;;;4.32;;